< < Back
Terminal Aerodrome Forecast


Current Version              Previous Versions:   1  2  3  4  5  6  7  8  9  

Terminal Aerodrome Forecast

691
FTUS44 KBMX 051739
TAFTCL
TAF
KTCL 051739Z 0518/0618 30013G23KT P6SM SCT070
      TEMPO 0520/0524 33013G23KT
     FM060000 34011KT P6SM SKC
     FM060500 36004KT P6SM SKC
     FM061400 36010KT P6SM SKC=



Latest METAR

793
SAUS70 KWBC 060500 RRJ
MTRTCL
METAR KTCL 060453Z AUTO 03010KT 10SM CLR 13/06 A2999 RMK AO2 SLP153
T01330056


USA.gov is the U.S. government's official web portal to all federal, state and local government web resources and services.